Time;durP1;ratioP1;P1;durP2;ratioP2;P2;SDS_P1;SDS_P2;PMS_P1;PMS_P2;Temp;Humidity;BMP_temperature;BMP_pressure;BME280_temperature;BME280_humidity;BME280_pressure;Samples;Min_cycle;Max_cycle;Signal;HPM_P1;HPM_P2
2023/02/27 00:00:40;;;;;;;6.70;2.40;;;;;;;5.41;46.55;102315.97;5057583;27;101591;-71
2023/02/27 00:03:07;;;;;;;4.93;2.45;;;;;;;5.31;46.69;102324.63;5063259;27;98962;-71
2023/02/27 00:05:33;;;;;;;6.80;2.20;;;;;;;5.16;47.39;102318.34;5066629;27;97103;-70
2023/02/27 00:08:00;;;;;;;4.68;2.10;;;;;;;5.20;47.43;102314.88;5071055;27;97277;-70
2023/02/27 00:10:26;;;;;;;3.97;2.55;;;;;;;5.08;47.73;102313.84;5070437;27;99238;-72
2023/02/27 00:12:53;;;;;;;7.47;2.20;;;;;;;5.24;47.30;102320.16;5069539;27;100950;-71
2023/02/27 00:15:21;;;;;;;5.57;2.00;;;;;;;5.30;47.21;102320.22;5068568;27;97618;-71
2023/02/27 00:17:47;;;;;;;4.32;1.88;;;;;;;5.17;47.41;102327.06;5062261;27;99369;-72
2023/02/27 00:20:17;;;;;;;4.95;2.08;;;;;;;5.07;47.80;102326.06;5069436;27;99005;-73
2023/02/27 00:22:44;;;;;;;5.30;2.10;;;;;;;5.00;48.01;102321.63;5063480;27;99002;-72
2023/02/27 00:25:11;;;;;;;4.80;2.10;;;;;;;4.64;48.41;102326.41;5066178;27;97043;-72
2023/02/27 00:27:38;;;;;;;4.78;2.20;;;;;;;4.75;48.51;102323.06;5066248;27;96962;-71
2023/02/27 00:30:06;;;;;;;2.53;1.33;;;;;;;4.75;48.99;102327.41;5069230;27;99147;-71
2023/02/27 00:32:35;;;;;;;3.92;1.38;;;;;;;4.68;48.80;102328.19;5068905;27;97525;-72
2023/02/27 00:35:01;;;;;;;3.67;1.80;;;;;;;4.71;49.02;102318.66;5066552;27;96766;-72
2023/02/27 00:37:28;;;;;;;4.70;1.48;;;;;;;4.93;47.73;102319.78;5062121;27;98995;-71
2023/02/27 00:39:54;;;;;;;4.28;1.80;;;;;;;5.04;47.94;102322.56;5064426;27;98817;-70
2023/02/27 00:42:21;;;;;;;4.82;1.83;;;;;;;5.36;47.63;102325.53;5065700;27;99515;-70
2023/02/27 00:44:47;;;;;;;4.15;1.92;;;;;;;5.22;47.97;102323.66;5066148;27;96754;-72
2023/02/27 00:47:14;;;;;;;4.13;2.00;;;;;;;5.24;47.52;102331.53;5057259;27;99941;-72
2023/02/27 00:49:41;;;;;;;3.67;1.90;;;;;;;5.05;48.22;102327.81;5067812;27;100298;-72
2023/02/27 00:52:08;;;;;;;3.40;2.00;;;;;;;4.81;48.53;102327.50;5070501;27;99306;-72
2023/02/27 00:54:35;;;;;;;5.13;1.70;;;;;;;4.89;48.60;102320.63;5059950;27;97291;-71
2023/02/27 00:57:02;;;;;;;2.72;1.52;;;;;;;4.88;48.82;102320.59;5073960;27;96867;-71
2023/02/27 00:59:28;;;;;;;2.80;1.70;;;;;;;5.19;48.03;102320.97;5068520;27;99402;-72
2023/02/27 01:01:54;;;;;;;4.13;1.70;;;;;;;5.32;47.91;102323.72;5059669;27;99091;-72
2023/02/27 01:04:21;;;;;;;4.10;2.13;;;;;;;5.15;47.76;102313.94;5067431;27;97681;-72
2023/02/27 01:06:48;;;;;;;5.32;1.92;;;;;;;5.27;47.45;102318.44;5068947;27;99364;-72
2023/02/27 01:09:15;;;;;;;6.00;1.65;;;;;;;5.13;47.67;102312.16;5068684;27;99403;-72
2023/02/27 01:11:41;;;;;;;5.20;2.08;;;;;;;5.19;47.51;102317.47;5061956;27;97577;-72
2023/02/27 01:14:08;;;;;;;3.53;1.73;;;;;;;4.96;48.58;102317.22;5068851;27;96710;-71
2023/02/27 01:16:34;;;;;;;4.88;2.15;;;;;;;4.97;48.53;102313.75;5070023;27;96770;-72
2023/02/27 01:19:01;;;;;;;4.90;2.22;;;;;;;4.89;48.30;102318.00;5062167;27;99270;-71
2023/02/27 01:21:27;;;;;;;5.40;1.88;;;;;;;4.82;48.65;102310.91;5068524;27;98835;-71
2023/02/27 01:23:55;;;;;;;4.75;1.80;;;;;;;4.79;48.77;102305.66;5068051;27;97939;-71
2023/02/27 01:26:21;;;;;;;5.78;2.00;;;;;;;4.84;48.96;102309.22;5068429;27;97272;-72
2023/02/27 01:28:47;;;;;;;4.20;1.90;;;;;;;4.99;48.60;102309.38;5070049;27;97387;-71
2023/02/27 01:31:14;;;;;;;3.03;2.08;;;;;;;4.81;49.09;102307.41;5065712;27;101519;-70
2023/02/27 01:33:41;;;;;;;5.82;1.80;;;;;;;4.82;49.30;102305.69;5069781;27;96863;-73
2023/02/27 01:36:08;;;;;;;3.83;1.65;;;;;;;4.91;49.80;102305.81;5063672;27;96856;-71
2023/02/27 01:38:34;;;;;;;8.63;2.47;;;;;;;4.60;49.69;102295.78;5067003;27;99150;-71
2023/02/27 01:41:05;;;;;;;3.50;1.70;;;;;;;4.75;50.10;102309.06;5064759;27;99555;-71
2023/02/27 01:43:31;;;;;;;5.00;2.00;;;;;;;4.38;50.27;102313.81;5068863;27;98453;-71
2023/02/27 01:45:59;;;;;;;4.50;1.60;;;;;;;4.46;50.01;102308.69;5063244;27;98666;-71
2023/02/27 01:48:29;;;;;;;5.45;1.70;;;;;;;4.47;50.01;102306.94;5064268;27;97530;-72
2023/02/27 01:51:00;;;;;;;2.50;1.65;;;;;;;4.59;50.64;102301.91;5062793;27;98944;-72
2023/02/27 01:53:30;;;;;;;5.72;2.45;;;;;;;4.81;50.03;102301.28;5064436;27;98888;-70
2023/02/27 01:56:01;;;;;;;5.20;1.65;;;;;;;4.66;49.77;102299.34;5064634;27;97411;-71
2023/02/27 01:58:28;;;;;;;2.78;1.77;;;;;;;4.71;49.85;102300.31;5067061;27;97711;-71
2023/02/27 02:00:55;;;;;;;4.35;2.20;;;;;;;4.94;49.27;102307.56;5064518;27;98854;-72
2023/02/27 02:03:27;;;;;;;2.75;1.65;;;;;;;4.76;49.13;102306.50;5067821;27;96969;-71
2023/02/27 02:05:56;;;;;;;3.03;1.67;;;;;;;5.12;48.95;102307.81;5058615;27;98770;-72
2023/02/27 02:08:26;;;;;;;7.05;2.25;;;;;;;5.07;48.40;102301.63;5064750;27;98895;-71
2023/02/27 02:10:54;;;;;;;2.65;1.50;;;;;;;4.94;48.84;102305.81;5062283;27;98105;-71
2023/02/27 02:13:22;;;;;;;3.08;1.77;;;;;;;4.93;48.82;102304.06;5068078;27;96753;-72
2023/02/27 02:16:02;;;;;;;4.30;1.83;;;;;;;4.88;49.30;102305.75;5062737;27;96881;-72
2023/02/27 02:18:40;;;;;;;4.85;1.50;;;;;;;4.76;49.61;102300.38;5061799;27;99284;-72
2023/02/27 02:21:40;;;;;;;3.85;1.25;;;;;;;4.73;49.31;102300.31;5065282;27;97910;-72
2023/02/27 02:24:40;;;;;;;3.47;1.60;;;;;;;4.58;50.00;102307.97;5069725;27;99077;-71
2023/02/27 02:27:22;;;;;;;2.58;1.50;;;;;;;4.36;50.04;102310.28;5070185;27;96771;-71
2023/02/27 02:30:37;;;;;;;2.67;1.42;;;;;;;4.54;49.62;102303.53;5069167;27;98910;-71
2023/02/27 02:33:31;;;;;;;2.75;1.30;;;;;;;4.44;50.73;102306.91;5069616;27;98281;-71
2023/02/27 02:36:25;;;;;;;4.50;1.20;;;;;;;4.37;50.61;102314.66;5067510;27;97136;-70
2023/02/27 02:39:37;;;;;;;2.83;1.60;;;;;;;4.38;51.40;102315.56;5068501;27;97108;-71
2023/02/27 02:42:13;;;;;;;3.20;1.73;;;;;;;4.25;51.78;102321.47;5036445;27;97808;-73
2023/02/27 02:44:47;;;;;;;;;;;;;;;4.26;52.25;102318.88;5067208;27;99122;-71
2023/02/27 02:47:23;;;;;;;3.35;1.45;;;;;;;4.09;52.57;102320.31;5070455;27;98718;-73
2023/02/27 02:49:56;;;;;;;6.32;1.63;;;;;;;4.17;52.44;102318.72;5068650;27;96756;-71
2023/02/27 02:52:30;;;;;;;4.03;1.52;;;;;;;4.28;51.72;102316.25;5066905;27;102750;-72
2023/02/27 02:55:03;;;;;;;2.92;1.58;;;;;;;4.07;52.36;102336.88;5069839;27;100554;-73
2023/02/27 02:57:37;;;;;;;2.97;1.40;;;;;;;4.17;52.75;102329.19;5064601;27;98465;-73
2023/02/27 03:00:09;;;;;;;4.47;1.50;;;;;;;4.15;53.11;102333.50;5071378;27;96828;-72
2023/02/27 03:02:41;;;;;;;4.60;1.52;;;;;;;4.29;52.23;102331.09;5065352;27;97724;-72
2023/02/27 03:05:12;;;;;;;4.43;1.33;;;;;;;4.30;52.35;102333.75;5070191;27;97733;-71
2023/02/27 03:07:43;;;;;;;2.13;1.27;;;;;;;4.28;52.46;102331.97;5064303;27;98701;-72
2023/02/27 03:10:14;;;;;;;4.57;1.92;;;;;;;4.33;52.23;102335.56;5063861;27;96860;-72
2023/02/27 03:12:46;;;;;;;4.40;1.75;;;;;;;4.45;52.74;102340.09;5067635;27;98881;-71
2023/02/27 03:15:17;;;;;;;3.70;1.67;;;;;;;4.10;52.83;102345.63;5069872;27;99074;-72
2023/02/27 03:17:49;;;;;;;3.25;1.63;;;;;;;4.19;53.08;102340.56;5066559;27;97185;-72
2023/02/27 03:20:20;;;;;;;5.30;1.92;;;;;;;4.17;53.07;102350.13;5069714;27;98846;-72
2023/02/27 03:22:52;;;;;;;2.00;0.93;;;;;;;4.26;52.22;102339.81;5066307;27;99380;-72
2023/02/27 03:25:20;;;;;;;3.97;1.52;;;;;;;4.16;52.00;102353.59;5066979;27;98921;-71
2023/02/27 03:27:52;;;;;;;7.68;1.80;;;;;;;4.09;53.10;102366.53;5072613;27;97040;-71
2023/02/27 03:30:23;;;;;;;3.55;1.50;;;;;;;4.36;51.92;102357.41;5066231;27;97816;-72
2023/02/27 03:32:56;;;;;;;3.05;1.63;;;;;;;4.26;52.20;102357.25;5067438;27;98322;-72
2023/02/27 03:35:26;;;;;;;5.15;2.15;;;;;;;4.28;52.40;102355.50;5065613;27;102533;-72
2023/02/27 03:37:58;;;;;;;3.35;1.60;;;;;;;4.68;50.95;102355.25;5069718;27;96748;-72
2023/02/27 03:40:31;;;;;;;4.70;1.80;;;;;;;4.71;50.57;102354.44;5071962;27;98525;-71
2023/02/27 03:43:04;;;;;;;2.58;1.20;;;;;;;4.58;49.96;102356.00;5069075;27;99132;-72
2023/02/27 03:45:36;;;;;;;4.65;1.55;;;;;;;4.84;49.41;102358.09;5063932;27;98949;-72
2023/02/27 03:48:05;;;;;;;3.75;1.67;;;;;;;4.89;49.59;102359.91;5066333;27;99459;-72
2023/02/27 03:50:31;;;;;;;4.97;1.60;;;;;;;4.90;49.44;102366.03;5066822;27;97112;-72
2023/02/27 03:52:58;;;;;;;4.05;1.70;;;;;;;4.92;49.71;102374.81;5063687;27;99111;-71
2023/02/27 03:55:29;;;;;;;3.92;1.65;;;;;;;4.75;49.88;102375.44;5065486;27;99219;-70
2023/02/27 03:57:56;;;;;;;5.05;1.85;;;;;;;4.55;50.15;102379.50;5067972;27;97000;-71
2023/02/27 04:00:26;;;;;;;4.90;2.03;;;;;;;4.63;50.30;102379.63;5068029;27;97616;-70
2023/02/27 04:02:55;;;;;;;6.75;2.00;;;;;;;4.32;50.46;102379.16;5063906;27;99220;-71
2023/02/27 04:05:22;;;;;;;6.07;1.80;;;;;;;4.58;50.00;102376.06;5065814;27;99433;-74
2023/02/27 04:08:13;;;;;;;3.88;2.00;;;;;;;4.73;49.85;102384.09;5066675;27;98432;-73
2023/02/27 04:10:56;;;;;;;4.93;1.77;;;;;;;4.69;49.95;102379.69;5069623;27;97252;-74
2023/02/27 04:13:39;;;;;;;5.43;1.70;;;;;;;4.66;50.30;102379.66;5065769;27;97632;-72
2023/02/27 04:16:28;;;;;;;3.28;1.80;;;;;;;4.67;50.29;102378.78;5066532;27;99142;-73
2023/02/27 04:19:11;;;;;;;3.47;1.85;;;;;;;4.78;49.96;102390.31;5061842;27;97501;-71
2023/02/27 04:21:48;;;;;;;4.65;2.20;;;;;;;4.82;49.70;102387.75;5064289;27;97549;-71
2023/02/27 04:24:29;;;;;;;4.03;2.00;;;;;;;4.75;49.54;102391.16;5068809;27;99050;-72
2023/02/27 04:27:05;;;;;;;6.97;1.90;;;;;;;4.79;50.11;102394.69;5063427;27;100164;-72
2023/02/27 04:29:41;;;;;;;6.40;1.75;;;;;;;4.70;49.93;102391.94;5065599;27;96761;-71
2023/02/27 04:32:20;;;;;;;3.92;1.85;;;;;;;4.76;50.33;102392.03;5064299;27;98589;-72
2023/02/27 04:34:50;;;;;;;7.60;1.75;;;;;;;4.72;50.43;102390.22;5069230;27;99189;-72
2023/02/27 04:37:24;;;;;;;3.13;1.83;;;;;;;4.68;50.44;102391.03;5069050;27;99130;-72
2023/02/27 04:39:56;;;;;;;5.28;2.25;;;;;;;4.76;50.13;102394.66;5062521;27;98676;-71
2023/02/27 04:42:26;;;;;;;8.63;2.08;;;;;;;4.58;50.15;102394.38;5065638;27;98707;-72
2023/02/27 04:44:58;;;;;;;6.20;2.50;;;;;;;4.81;49.41;102403.44;5060801;27;99028;-72
2023/02/27 04:47:30;;;;;;;6.18;2.25;;;;;;;4.63;50.06;102400.56;5059970;27;99268;-72
2023/02/27 04:50:02;;;;;;;11.40;2.83;;;;;;;4.61;50.84;102410.13;5065259;27;98412;-72
2023/02/27 04:52:31;;;;;;;5.53;2.05;;;;;;;4.72;50.02;102400.72;5067475;27;97221;-73
2023/02/27 04:55:03;;;;;;;3.63;2.10;;;;;;;4.56;50.36;102396.09;5067991;27;98875;-72
2023/02/27 04:57:34;;;;;;;6.20;2.50;;;;;;;4.38;51.05;102397.56;5066378;27;99371;-72
2023/02/27 05:00:05;;;;;;;3.75;2.10;;;;;;;4.23;52.04;102401.66;5066822;27;96901;-72
2023/02/27 05:02:37;;;;;;;4.93;2.22;;;;;;;4.14;52.05;102398.88;5068689;27;96724;-72
2023/02/27 05:05:09;;;;;;;9.90;3.88;;;;;;;3.83;53.16;102398.34;5060681;27;100337;-71
2023/02/27 05:07:39;;;;;;;12.20;2.80;;;;;;;4.03;52.63;102403.94;5055422;27;99178;-72
2023/02/27 05:10:08;;;;;;;14.95;3.10;;;;;;;4.05;51.93;102404.84;5064318;27;96803;-73
2023/02/27 05:12:41;;;;;;;6.30;3.17;;;;;;;4.34;51.81;102403.59;5069130;27;97459;-73
2023/02/27 05:15:12;;;;;;;6.97;2.38;;;;;;;4.12;52.29;102406.72;5065288;27;99193;-72
2023/02/27 05:17:45;;;;;;;6.65;2.53;;;;;;;4.19;52.80;102400.75;5068085;27;98687;-70
2023/02/27 05:20:13;;;;;;;6.53;2.15;;;;;;;4.21;52.49;102403.38;5064374;27;97052;-72
2023/02/27 05:22:47;;;;;;;6.53;2.30;;;;;;;3.95;52.52;102414.25;5065535;27;97386;-71
2023/02/27 05:25:21;;;;;;;4.43;1.77;;;;;;;3.80;53.58;102407.88;5065827;27;99064;-71
2023/02/27 05:27:51;;;;;;;4.85;1.55;;;;;;;3.68;54.11;102405.91;5066445;27;98804;-70
2023/02/27 05:30:21;;;;;;;3.58;1.60;;;;;;;3.38;54.99;102413.16;5070441;27;97664;-72
2023/02/27 05:32:53;;;;;;;6.20;2.10;;;;;;;3.61;54.46;102410.13;5063549;27;96951;-72
2023/02/27 05:35:24;;;;;;;5.07;1.85;;;;;;;3.60;54.85;102408.41;5061755;27;99087;-72
2023/02/27 05:37:55;;;;;;;6.28;2.05;;;;;;;3.41;55.19;102413.22;5064081;27;99021;-72
2023/02/27 05:40:26;;;;;;;3.80;1.60;;;;;;;3.43;55.20;102422.84;5065739;27;96856;-72
2023/02/27 05:42:58;;;;;;;5.32;2.10;;;;;;;3.69;54.84;102423.34;5061019;27;97750;-72
2023/02/27 05:45:30;;;;;;;5.95;2.30;;;;;;;3.38;55.50;102427.09;5066132;27;102549;-72
2023/02/27 05:48:02;;;;;;;4.38;2.13;;;;;;;3.72;54.75;102433.88;5066090;27;98309;-72
2023/02/27 05:50:32;;;;;;;6.05;2.15;;;;;;;3.60;55.04;102446.72;5061495;27;96840;-72
2023/02/27 05:53:03;;;;;;;6.28;1.52;;;;;;;3.58;55.45;102436.22;5061005;27;96908;-72
2023/02/27 05:55:35;;;;;;;5.32;2.65;;;;;;;3.60;55.44;102425.81;5060940;27;98899;-70
2023/02/27 05:58:10;;;;;;;6.60;2.40;;;;;;;3.56;55.13;102423.97;5067285;27;99204;-70
2023/02/27 06:00:40;;;;;;;3.85;1.83;;;;;;;3.44;55.76;102434.19;5068651;27;96826;-69
2023/02/27 06:03:07;;;;;;;5.80;2.08;;;;;;;3.51;55.18;102446.53;5069668;27;96790;-69
2023/02/27 06:05:36;;;;;;;5.45;2.15;;;;;;;3.43;55.96;102455.94;5065649;27;98102;-70
2023/02/27 06:08:02;;;;;;;2.75;2.08;;;;;;;3.87;54.64;102443.75;5063735;27;98960;-72
2023/02/27 06:10:29;;;;;;;6.00;2.58;;;;;;;4.11;53.87;102444.19;5069956;27;97225;-70
2023/02/27 06:12:55;;;;;;;4.82;2.47;;;;;;;4.16;53.76;102455.63;5061027;27;98222;-71
2023/02/27 06:15:22;;;;;;;5.60;2.55;;;;;;;4.15;53.60;102453.84;5065442;27;99442;-71
2023/02/27 06:17:55;;;;;;;5.43;2.15;;;;;;;4.38;53.16;102459.50;5062589;27;99088;-70
2023/02/27 06:20:23;;;;;;;2.72;2.00;;;;;;;3.99;53.68;102457.06;5063173;27;97565;-70
2023/02/27 06:22:50;;;;;;;5.68;1.92;;;;;;;3.95;53.71;102460.44;5067460;27;98322;-70
2023/02/27 06:25:16;;;;;;;6.72;2.22;;;;;;;3.75;54.43;102465.31;5061833;27;98880;-71
2023/02/27 06:27:43;;;;;;;6.05;2.97;;;;;;;4.12;53.59;102472.13;5055521;27;99345;-70
2023/02/27 06:30:10;;;;;;;8.82;3.63;;;;;;;4.26;53.08;102469.75;5060385;27;97019;-72
2023/02/27 06:32:37;;;;;;;7.03;3.13;;;;;;;4.34;53.29;102469.03;5059564;27;97057;-71
2023/02/27 06:35:04;;;;;;;7.47;3.05;;;;;;;4.52;52.41;102473.72;5066846;27;98911;-71
2023/02/27 06:37:32;;;;;;;4.00;2.22;;;;;;;4.18;53.66;102461.78;5060656;27;98065;-71
2023/02/27 06:39:58;;;;;;;3.85;2.17;;;;;;;4.34;53.24;102469.03;5066433;27;96775;-72
2023/02/27 06:42:25;;;;;;;8.57;3.03;;;;;;;4.31;52.83;102470.72;5062845;27;97196;-72
2023/02/27 06:44:51;;;;;;;6.97;2.92;;;;;;;4.54;52.95;102473.72;5057315;27;99166;-72
2023/02/27 06:47:18;;;;;;;6.70;2.63;;;;;;;4.58;52.82;102481.66;5052295;27;101646;-73
2023/02/27 06:49:44;;;;;;;5.35;2.58;;;;;;;4.56;52.38;102474.63;5059382;27;97499;-72
2023/02/27 06:52:10;;;;;;;9.35;3.15;;;;;;;4.61;52.56;102478.19;5065850;27;96787;-72
2023/02/27 06:54:38;;;;;;;6.43;3.03;;;;;;;4.66;52.67;102471.31;5056287;27;99489;-71
2023/02/27 06:57:05;;;;;;;6.38;2.42;;;;;;;4.62;52.78;102479.97;5061875;27;98363;-72
2023/02/27 06:59:31;;;;;;;10.07;3.20;;;;;;;4.91;51.62;102486.56;5061841;27;97775;-72
2023/02/27 07:01:59;;;;;;;13.48;2.85;;;;;;;4.90;51.87;102497.88;5059236;27;98560;-72
2023/02/27 07:04:25;;;;;;;8.65;2.55;;;;;;;4.90;51.91;102484.78;5056241;27;100831;-72
2023/02/27 07:06:52;;;;;;;6.50;2.85;;;;;;;4.98;51.65;102498.00;5055667;27;102339;-72
2023/02/27 07:09:19;;;;;;;9.23;3.10;;;;;;;5.05;51.46;102507.72;5060690;27;98113;-72
2023/02/27 07:11:46;;;;;;;8.38;3.28;;;;;;;5.14;50.92;102513.97;5065880;27;97302;-73
2023/02/27 07:14:15;;;;;;;10.00;4.28;;;;;;;5.00;50.71;102522.47;5070730;27;100616;-72
2023/02/27 07:16:42;;;;;;;9.32;3.60;;;;;;;5.07;51.58;102522.59;5066181;27;97691;-72
2023/02/27 07:19:08;;;;;;;9.85;4.28;;;;;;;5.48;51.81;102527.56;5071220;27;98452;-72
2023/02/27 07:21:34;;;;;;;6.97;3.45;;;;;;;5.54;50.97;102532.88;5064173;27;97405;-73
2023/02/27 07:24:01;;;;;;;11.90;4.22;;;;;;;5.58;50.75;102525.06;5061677;27;97758;-72
2023/02/27 07:26:28;;;;;;;11.77;4.38;;;;;;;5.58;50.66;102532.94;5070766;27;101651;-72
2023/02/27 07:28:56;;;;;;;11.40;4.80;;;;;;;5.85;51.21;102528.91;5064772;27;97876;-71
2023/02/27 07:31:22;;;;;;;17.67;4.65;;;;;;;5.85;51.15;102535.03;5069198;27;97898;-72
2023/02/27 07:33:48;;;;;;;7.57;3.83;;;;;;;5.71;50.97;102544.47;5067077;27;98919;-72
2023/02/27 07:36:15;;;;;;;14.00;3.80;;;;;;;5.80;50.81;102544.59;5070543;27;98791;-72
2023/02/27 07:38:41;;;;;;;7.53;3.90;;;;;;;5.90;50.50;102538.66;5069198;27;96818;-73
2023/02/27 07:41:08;;;;;;;7.18;3.90;;;;;;;5.85;50.73;102534.16;5065121;27;96878;-74
2023/02/27 07:43:34;;;;;;;17.90;4.13;;;;;;;5.97;50.98;102535.19;5064415;27;98883;-73
2023/02/27 07:46:03;;;;;;;12.27;4.03;;;;;;;5.90;51.07;102525.53;5065417;27;98606;-73
2023/02/27 07:48:29;;;;;;;10.88;4.05;;;;;;;6.10;50.97;102538.88;5063078;27;97119;-73
2023/02/27 07:50:56;;;;;;;11.23;3.75;;;;;;;6.35;51.13;102545.25;5069294;27;96849;-73
2023/02/27 07:53:22;;;;;;;13.00;3.53;;;;;;;6.19;50.79;102543.31;5066472;27;98850;-73
2023/02/27 07:55:49;;;;;;;12.48;3.97;;;;;;;6.34;50.89;102538.25;5062830;27;99389;-73
2023/02/27 07:58:15;;;;;;;12.50;3.42;;;;;;;6.47;50.35;102545.38;5061755;27;97049;-73
2023/02/27 08:00:41;;;;;;;9.73;3.72;;;;;;;6.40;50.46;102551.44;5067259;27;97083;-73
2023/02/27 08:03:09;;;;;;;8.38;3.97;;;;;;;6.09;50.38;102546.72;5070971;27;98927;-73
2023/02/27 08:05:36;;;;;;;12.38;4.38;;;;;;;6.17;50.77;102545.06;5063588;27;99233;-72
2023/02/27 08:08:03;;;;;;;12.48;4.93;;;;;;;6.45;50.79;102541.84;5064279;27;97011;-72
2023/02/27 08:10:29;;;;;;;11.45;3.67;;;;;;;6.56;50.16;102540.22;5065794;27;97000;-73
2023/02/27 08:12:56;;;;;;;12.50;3.75;;;;;;;6.39;50.22;102545.31;5065325;27;98885;-72
2023/02/27 08:15:23;;;;;;;14.77;3.63;;;;;;;6.69;50.61;102551.72;5065214;27;102638;-72
2023/02/27 08:17:50;;;;;;;8.50;3.42;;;;;;;6.89;50.02;102549.28;5062940;27;97342;-73
2023/02/27 08:20:21;;;;;;;11.23;4.07;;;;;;;6.93;49.72;102545.78;5069700;27;96814;-72
2023/02/27 08:22:47;;;;;;;10.50;4.05;;;;;;;6.88;49.04;102552.75;5064393;27;99270;-74
2023/02/27 08:25:14;;;;;;;9.68;4.35;;;;;;;6.71;50.04;102555.22;5061452;27;99108;-72
2023/02/27 08:27:40;;;;;;;9.85;4.00;;;;;;;6.85;49.46;102556.22;5067621;27;97514;-74
2023/02/27 08:30:10;;;;;;;12.05;4.35;;;;;;;7.03;49.18;102558.13;5064001;27;97162;-74
2023/02/27 08:32:37;;;;;;;7.68;3.58;;;;;;;6.82;50.01;102560.59;5064814;27;98982;-73
2023/02/27 08:35:04;;;;;;;7.22;3.75;;;;;;;7.18;49.25;102563.50;5062141;27;99365;-73
2023/02/27 08:37:32;;;;;;;8.95;3.85;;;;;;;7.19;48.96;102566.16;5070367;27;97344;-73
2023/02/27 08:39:58;;;;;;;11.30;4.43;;;;;;;7.08;49.81;102559.06;5066833;27;96800;-72
2023/02/27 08:42:25;;;;;;;10.88;3.63;;;;;;;7.21;48.98;102558.28;5064587;27;99206;-74
2023/02/27 08:44:51;;;;;;;9.15;4.20;;;;;;;7.44;48.68;102561.94;5070858;27;100314;-74
2023/02/27 08:47:18;;;;;;;19.40;4.18;;;;;;;7.66;48.41;102562.06;5063966;27;97160;-74
2023/02/27 08:49:44;;;;;;;10.07;3.85;;;;;;;7.52;48.33;102557.59;5071062;27;97091;-73
2023/02/27 08:52:10;;;;;;;9.13;3.97;;;;;;;7.33;48.93;102566.25;5070104;27;98927;-73
2023/02/27 08:54:38;;;;;;;9.35;3.10;;;;;;;7.83;48.17;102558.63;5070118;27;99287;-73
2023/02/27 08:57:05;;;;;;;12.55;4.65;;;;;;;7.80;47.54;102556.00;5070856;27;97227;-73
2023/02/27 08:59:32;;;;;;;8.25;3.35;;;;;;;8.10;47.18;102563.13;5069086;27;97180;-74
2023/02/27 09:01:58;;;;;;;11.13;3.55;;;;;;;8.18;47.06;102566.66;5066596;27;100080;-74
2023/02/27 09:04:25;;;;;;;8.15;3.40;;;;;;;8.08;46.87;102561.34;5062774;27;99009;-74
2023/02/27 09:06:52;;;;;;;8.35;3.20;;;;;;;8.45;46.72;102558.00;5064948;27;97107;-73
2023/02/27 09:09:19;;;;;;;9.45;3.67;;;;;;;8.39;46.67;102563.25;5069595;27;97042;-74
2023/02/27 09:11:47;;;;;;;8.60;3.80;;;;;;;8.53;46.23;102560.66;5064174;27;99363;-74
2023/02/27 09:14:13;;;;;;;10.05;4.32;;;;;;;8.51;46.46;102559.75;5068480;27;98840;-74
2023/02/27 09:16:39;;;;;;;11.68;4.60;;;;;;;8.68;45.91;102558.03;5061329;27;97486;-73
2023/02/27 09:19:06;;;;;;;12.23;3.78;;;;;;;8.55;46.04;102554.50;5063772;27;98247;-73
2023/02/27 09:21:33;;;;;;;10.20;4.07;;;;;;;8.46;46.25;102559.75;5066974;27;101236;-74
2023/02/27 09:23:59;;;;;;;12.30;4.43;;;;;;;8.49;46.14;102566.78;5068344;27;98826;-74
2023/02/27 09:26:26;;;;;;;14.10;4.28;;;;;;;8.47;46.29;102572.03;5067156;27;97240;-74
2023/02/27 09:28:53;;;;;;;9.70;3.88;;;;;;;8.59;46.04;102572.09;5064169;27;97041;-73
2023/02/27 09:31:20;;;;;;;7.47;4.13;;;;;;;8.66;45.88;102581.72;5069079;27;98990;-74
2023/02/27 09:33:46;;;;;;;8.15;4.03;;;;;;;8.35;46.01;102583.44;5063559;27;98756;-74
2023/02/27 09:36:13;;;;;;;9.13;3.67;;;;;;;8.15;46.59;102573.66;5064540;27;97457;-73
2023/02/27 09:38:39;;;;;;;8.73;4.30;;;;;;;8.28;47.38;102578.97;5063632;27;98539;-74
2023/02/27 09:41:07;;;;;;;9.45;4.28;;;;;;;8.65;46.06;102589.66;5062983;27;99360;-74
2023/02/27 09:43:40;;;;;;;9.95;4.07;;;;;;;8.58;45.22;102586.13;5066499;27;99341;-74
2023/02/27 09:46:13;;;;;;;12.02;4.40;;;;;;;8.88;45.24;102580.00;5062412;27;98369;-74
2023/02/27 09:48:47;;;;;;;7.80;4.22;;;;;;;9.01;44.31;102576.50;5066514;27;97311;-74
2023/02/27 09:51:14;;;;;;;7.03;3.90;;;;;;;8.96;43.92;102578.25;5066590;27;99170;-73
2023/02/27 09:53:43;;;;;;;7.53;3.30;;;;;;;9.23;42.58;102584.41;5061934;27;100988;-73
2023/02/27 09:56:20;;;;;;;6.95;3.22;;;;;;;9.26;42.19;102587.00;5064741;27;97491;-73
2023/02/27 09:58:51;;;;;;;;;;;;;;;9.43;41.98;102585.25;5061087;27;96954;-73
2023/02/27 10:01:23;;;;;;;10.05;3.38;;;;;;;9.56;42.00;102584.34;5059064;27;101104;-73
2023/02/27 10:04:24;;;;;;;5.72;3.20;;;;;;;9.77;41.33;102593.97;5061953;27;99170;-74
2023/02/27 10:06:54;;;;;;;8.02;3.85;;;;;;;9.50;41.71;102592.28;5067734;27;97367;-75
2023/02/27 10:09:34;;;;;;;10.20;3.50;;;;;;;9.38;42.29;102587.91;5065503;27;97879;-72
2023/02/27 10:12:12;;;;;;;7.05;3.45;;;;;;;9.38;42.52;102602.84;5065522;27;99651;-73
2023/02/27 10:14:43;;;;;;;10.77;3.30;;;;;;;9.52;41.79;102604.56;5062745;27;99237;-72
2023/02/27 10:17:19;;;;;;;7.82;3.70;;;;;;;9.45;42.12;102604.63;5063429;27;97191;-73
2023/02/27 10:19:48;;;;;;;7.95;2.85;;;;;;;9.56;42.29;102600.19;5069640;27;96807;-73
2023/02/27 10:22:21;;;;;;;8.10;3.42;;;;;;;9.80;41.03;102605.41;5067409;27;98908;-74
2023/02/27 10:24:52;;;;;;;5.55;2.95;;;;;;;9.75;40.76;102596.63;5066983;27;99185;-73
2023/02/27 10:27:20;;;;;;;11.25;3.40;;;;;;;10.23;39.99;102594.72;5064762;27;96804;-74
2023/02/27 10:29:47;;;;;;;8.40;3.53;;;;;;;10.39;39.39;102594.63;5068018;27;96834;-73
2023/02/27 10:32:20;;;;;;;3.85;2.38;;;;;;;10.42;37.77;102599.03;5066009;27;100409;-73
2023/02/27 10:34:51;;;;;;;4.32;2.80;;;;;;;10.57;37.52;102598.91;5063293;27;98861;-74
2023/02/27 10:37:22;;;;;;;5.60;2.30;;;;;;;10.29;37.89;102599.97;5067028;27;97336;-73
2023/02/27 10:39:53;;;;;;;5.35;2.53;;;;;;;10.77;37.67;102597.00;5061554;27;97739;-73
2023/02/27 10:42:19;;;;;;;4.72;2.50;;;;;;;11.13;36.01;102598.50;5068331;27;99061;-74
2023/02/27 10:44:46;;;;;;;3.72;1.98;;;;;;;10.74;35.49;102598.81;5069959;27;98904;-72
2023/02/27 10:47:15;;;;;;;4.78;2.33;;;;;;;11.23;35.44;102604.59;5067523;27;97215;-74
2023/02/27 10:49:43;;;;;;;5.50;2.35;;;;;;;11.23;34.76;102606.34;5072362;27;97144;-73
2023/02/27 10:52:11;;;;;;;6.25;1.83;;;;;;;11.09;34.22;102607.34;5073757;27;99362;-73
2023/02/27 10:54:38;;;;;;;3.50;1.98;;;;;;;11.10;33.34;102609.09;5068981;27;99280;-73
2023/02/27 10:57:18;;;;;;;5.10;1.45;;;;;;;11.29;32.97;102609.81;5063893;27;98668;-73
2023/02/27 10:59:52;;;;;;;5.57;1.50;;;;;;;11.01;33.03;102601.25;5070642;27;96878;-74
2023/02/27 11:02:26;;;;;;;2.72;1.30;;;;;;;11.13;32.31;102605.56;5073949;27;98928;-72
2023/02/27 11:04:54;;;;;;;5.20;1.15;;;;;;;11.16;32.23;102611.69;5067744;27;97930;-74
2023/02/27 11:07:33;;;;;;;3.47;1.27;;;;;;;11.02;31.71;102612.72;5067099;27;97697;-74
2023/02/27 11:10:16;;;;;;;4.05;1.40;;;;;;;11.10;32.45;102610.88;5070145;27;97092;-73
2023/02/27 11:12:58;;;;;;;5.85;1.40;;;;;;;11.19;31.44;102601.09;5066639;27;98881;-73
2023/02/27 11:15:26;;;;;;;3.28;1.10;;;;;;;11.18;31.40;102599.34;5064376;27;99125;-73
2023/02/27 11:17:54;;;;;;;4.43;1.13;;;;;;;11.12;31.96;102603.81;5064631;27;96923;-73
2023/02/27 11:20:34;;;;;;;6.85;1.52;;;;;;;11.04;32.37;102601.22;5073644;27;96788;-75
2023/02/27 11:23:04;;;;;;;6.40;1.23;;;;;;;11.17;32.36;102599.34;5064847;27;98212;-74
2023/02/27 11:25:30;;;;;;;2.72;1.65;;;;;;;11.17;31.94;102599.34;5070278;27;98795;-74
2023/02/27 11:28:13;;;;;;;5.97;1.15;;;;;;;11.23;31.73;102607.22;5064709;27;97432;-73
2023/02/27 11:30:42;;;;;;;4.18;1.13;;;;;;;11.00;31.77;102595.97;5073846;27;97613;-74
2023/02/27 11:33:18;;;;;;;6.65;1.17;;;;;;;11.13;32.19;102592.34;5070146;27;98788;-74
2023/02/27 11:35:51;;;;;;;5.40;1.38;;;;;;;10.94;32.13;102593.38;5065599;27;101545;-74
2023/02/27 11:38:22;;;;;;;2.08;1.38;;;;;;;10.74;32.60;102604.09;5072720;27;97086;-74
2023/02/27 11:40:51;;;;;;;4.55;1.30;;;;;;;10.53;33.01;102607.75;5066542;27;96875;-74
2023/02/27 11:43:20;;;;;;;2.45;1.25;;;;;;;10.63;31.88;102598.88;5071541;27;99246;-74
2023/02/27 11:45:51;;;;;;;3.35;0.93;;;;;;;10.50;32.27;102597.19;5062698;27;98170;-74